sensor_id;sensor_type;location;lat;lon;timestamp;P1;durP1;ratioP1;P2;durP2;ratioP2
19587;SDS011;9940;47.252;8.696;2023-02-22T00:00:27;13.50;;;3.88;;
19587;SDS011;9940;47.252;8.696;2023-02-22T00:03:08;7.75;;;4.25;;
19587;SDS011;9940;47.252;8.696;2023-02-22T00:05:37;8.75;;;4.22;;
19587;SDS011;9940;47.252;8.696;2023-02-22T00:08:09;8.90;;;4.30;;
19587;SDS011;9940;47.252;8.696;2023-02-22T00:10:35;8.00;;;4.28;;
19587;SDS011;9940;47.252;8.696;2023-02-22T00:13:06;10.10;;;4.32;;
19587;SDS011;9940;47.252;8.696;2023-02-22T00:15:32;8.05;;;4.45;;
19587;SDS011;9940;47.252;8.696;2023-02-22T00:17:59;9.90;;;4.30;;
19587;SDS011;9940;47.252;8.696;2023-02-22T00:20:25;11.57;;;5.38;;
19587;SDS011;9940;47.252;8.696;2023-02-22T00:22:53;7.80;;;4.25;;
19587;SDS011;9940;47.252;8.696;2023-02-22T00:25:20;9.60;;;5.03;;
19587;SDS011;9940;47.252;8.696;2023-02-22T00:27:47;6.82;;;3.92;;
19587;SDS011;9940;47.252;8.696;2023-02-22T00:30:14;7.10;;;4.53;;
19587;SDS011;9940;47.252;8.696;2023-02-22T00:32:43;9.25;;;4.05;;
19587;SDS011;9940;47.252;8.696;2023-02-22T00:35:09;7.63;;;4.00;;
19587;SDS011;9940;47.252;8.696;2023-02-22T00:37:35;6.38;;;3.85;;
19587;SDS011;9940;47.252;8.696;2023-02-22T00:40:05;7.18;;;4.28;;
19587;SDS011;9940;47.252;8.696;2023-02-22T00:42:32;6.20;;;3.67;;
19587;SDS011;9940;47.252;8.696;2023-02-22T00:44:58;7.43;;;3.65;;
19587;SDS011;9940;47.252;8.696;2023-02-22T00:47:24;7.45;;;3.92;;
19587;SDS011;9940;47.252;8.696;2023-02-22T00:49:53;7.70;;;3.45;;
19587;SDS011;9940;47.252;8.696;2023-02-22T00:52:19;8.20;;;3.65;;
19587;SDS011;9940;47.252;8.696;2023-02-22T00:54:46;6.45;;;3.70;;
19587;SDS011;9940;47.252;8.696;2023-02-22T00:57:12;8.82;;;3.60;;
19587;SDS011;9940;47.252;8.696;2023-02-22T00:59:38;8.75;;;3.60;;
19587;SDS011;9940;47.252;8.696;2023-02-22T01:02:04;9.82;;;4.18;;
19587;SDS011;9940;47.252;8.696;2023-02-22T01:04:33;7.82;;;4.10;;
19587;SDS011;9940;47.252;8.696;2023-02-22T01:06:59;10.93;;;3.88;;
19587;SDS011;9940;47.252;8.696;2023-02-22T01:09:25;7.03;;;3.78;;
19587;SDS011;9940;47.252;8.696;2023-02-22T01:11:52;6.15;;;3.70;;
19587;SDS011;9940;47.252;8.696;2023-02-22T01:14:22;6.93;;;3.63;;
19587;SDS011;9940;47.252;8.696;2023-02-22T01:16:53;12.85;;;3.40;;
19587;SDS011;9940;47.252;8.696;2023-02-22T01:19:21;8.65;;;3.38;;
19587;SDS011;9940;47.252;8.696;2023-02-22T01:21:48;7.78;;;3.63;;
19587;SDS011;9940;47.252;8.696;2023-02-22T01:24:15;8.77;;;3.97;;
19587;SDS011;9940;47.252;8.696;2023-02-22T01:26:47;7.28;;;3.30;;
19587;SDS011;9940;47.252;8.696;2023-02-22T01:29:14;6.13;;;3.40;;
19587;SDS011;9940;47.252;8.696;2023-02-22T01:31:41;5.97;;;3.30;;
19587;SDS011;9940;47.252;8.696;2023-02-22T01:34:11;7.15;;;3.28;;
19587;SDS011;9940;47.252;8.696;2023-02-22T01:36:38;7.20;;;3.80;;
19587;SDS011;9940;47.252;8.696;2023-02-22T01:39:05;6.10;;;3.20;;
19587;SDS011;9940;47.252;8.696;2023-02-22T01:41:31;7.32;;;2.70;;
19587;SDS011;9940;47.252;8.696;2023-02-22T01:44:16;6.88;;;3.50;;
19587;SDS011;9940;47.252;8.696;2023-02-22T01:46:42;7.05;;;3.17;;
19587;SDS011;9940;47.252;8.696;2023-02-22T01:49:08;6.93;;;3.13;;
19587;SDS011;9940;47.252;8.696;2023-02-22T01:51:38;5.80;;;3.20;;
19587;SDS011;9940;47.252;8.696;2023-02-22T01:54:06;9.25;;;3.00;;
19587;SDS011;9940;47.252;8.696;2023-02-22T01:56:33;6.78;;;3.28;;
19587;SDS011;9940;47.252;8.696;2023-02-22T01:59:02;6.25;;;3.03;;
19587;SDS011;9940;47.252;8.696;2023-02-22T02:01:30;6.75;;;3.33;;
19587;SDS011;9940;47.252;8.696;2023-02-22T02:03:57;7.07;;;3.50;;
19587;SDS011;9940;47.252;8.696;2023-02-22T02:06:26;7.55;;;3.35;;
19587;SDS011;9940;47.252;8.696;2023-02-22T02:11:26;6.40;;;3.20;;
19587;SDS011;9940;47.252;8.696;2023-02-22T02:13:53;5.47;;;3.15;;
19587;SDS011;9940;47.252;8.696;2023-02-22T02:16:21;7.93;;;3.70;;
19587;SDS011;9940;47.252;8.696;2023-02-22T02:18:50;8.00;;;3.35;;
19587;SDS011;9940;47.252;8.696;2023-02-22T02:41:38;6.78;;;3.22;;
19587;SDS011;9940;47.252;8.696;2023-02-22T02:44:15;7.03;;;3.55;;
19587;SDS011;9940;47.252;8.696;2023-02-22T02:46:55;7.22;;;3.42;;
19587;SDS011;9940;47.252;8.696;2023-02-22T02:49:33;6.35;;;3.85;;
19587;SDS011;9940;47.252;8.696;2023-02-22T02:52:01;9.82;;;3.25;;
19587;SDS011;9940;47.252;8.696;2023-02-22T02:54:28;6.57;;;3.28;;
19587;SDS011;9940;47.252;8.696;2023-02-22T02:56:55;8.80;;;3.50;;
19587;SDS011;9940;47.252;8.696;2023-02-22T02:59:32;6.20;;;3.03;;
19587;SDS011;9940;47.252;8.696;2023-02-22T03:20:03;7.22;;;3.78;;
19587;SDS011;9940;47.252;8.696;2023-02-22T03:22:32;5.55;;;3.40;;
19587;SDS011;9940;47.252;8.696;2023-02-22T03:25:02;6.30;;;2.92;;
19587;SDS011;9940;47.252;8.696;2023-02-22T03:27:32;6.85;;;3.05;;
19587;SDS011;9940;47.252;8.696;2023-02-22T03:30:06;6.95;;;3.40;;
19587;SDS011;9940;47.252;8.696;2023-02-22T03:32:35;6.35;;;3.38;;
19587;SDS011;9940;47.252;8.696;2023-02-22T03:35:04;8.02;;;3.53;;
19587;SDS011;9940;47.252;8.696;2023-02-22T03:37:36;8.73;;;3.50;;
19587;SDS011;9940;47.252;8.696;2023-02-22T03:40:04;7.03;;;3.53;;
19587;SDS011;9940;47.252;8.696;2023-02-22T03:42:51;7.85;;;4.03;;
19587;SDS011;9940;47.252;8.696;2023-02-22T03:45:20;6.68;;;3.22;;
19587;SDS011;9940;47.252;8.696;2023-02-22T03:47:50;6.57;;;3.58;;
19587;SDS011;9940;47.252;8.696;2023-02-22T03:50:19;7.20;;;3.50;;
19587;SDS011;9940;47.252;8.696;2023-02-22T03:52:49;5.47;;;3.58;;
19587;SDS011;9940;47.252;8.696;2023-02-22T03:55:15;7.32;;;3.22;;
19587;SDS011;9940;47.252;8.696;2023-02-22T03:57:47;7.28;;;3.80;;
19587;SDS011;9940;47.252;8.696;2023-02-22T04:00:16;6.28;;;3.45;;
19587;SDS011;9940;47.252;8.696;2023-02-22T04:02:43;9.02;;;3.60;;
19587;SDS011;9940;47.252;8.696;2023-02-22T04:05:09;8.57;;;4.03;;
19587;SDS011;9940;47.252;8.696;2023-02-22T04:07:35;7.55;;;3.78;;
19587;SDS011;9940;47.252;8.696;2023-02-22T04:10:01;7.50;;;3.55;;
19587;SDS011;9940;47.252;8.696;2023-02-22T04:12:27;4.28;;;2.85;;
19587;SDS011;9940;47.252;8.696;2023-02-22T04:14:53;8.93;;;3.30;;
19587;SDS011;9940;47.252;8.696;2023-02-22T04:17:19;10.65;;;3.42;;
19587;SDS011;9940;47.252;8.696;2023-02-22T04:19:45;5.22;;;3.40;;
19587;SDS011;9940;47.252;8.696;2023-02-22T04:22:12;5.32;;;2.95;;
19587;SDS011;9940;47.252;8.696;2023-02-22T04:24:40;7.30;;;3.25;;
19587;SDS011;9940;47.252;8.696;2023-02-22T04:27:06;6.30;;;3.10;;
19587;SDS011;9940;47.252;8.696;2023-02-22T04:29:32;8.43;;;3.28;;
19587;SDS011;9940;47.252;8.696;2023-02-22T04:32:01;5.45;;;2.92;;
19587;SDS011;9940;47.252;8.696;2023-02-22T04:34:27;5.82;;;3.20;;
19587;SDS011;9940;47.252;8.696;2023-02-22T04:36:53;9.40;;;3.30;;
19587;SDS011;9940;47.252;8.696;2023-02-22T04:39:19;6.82;;;3.08;;
19587;SDS011;9940;47.252;8.696;2023-02-22T04:41:45;7.20;;;2.95;;
19587;SDS011;9940;47.252;8.696;2023-02-22T04:44:13;6.22;;;2.90;;
19587;SDS011;9940;47.252;8.696;2023-02-22T04:46:39;6.40;;;3.72;;
19587;SDS011;9940;47.252;8.696;2023-02-22T04:49:05;8.13;;;3.83;;
19587;SDS011;9940;47.252;8.696;2023-02-22T04:51:31;25.08;;;11.93;;
19587;SDS011;9940;47.252;8.696;2023-02-22T04:54:00;23.88;;;11.25;;
19587;SDS011;9940;47.252;8.696;2023-02-22T04:56:29;12.40;;;5.38;;
19587;SDS011;9940;47.252;8.696;2023-02-22T04:58:57;10.18;;;4.07;;
19587;SDS011;9940;47.252;8.696;2023-02-22T05:01:29;7.90;;;4.00;;
19587;SDS011;9940;47.252;8.696;2023-02-22T05:03:55;7.20;;;3.80;;
19587;SDS011;9940;47.252;8.696;2023-02-22T05:06:23;8.30;;;3.90;;
19587;SDS011;9940;47.252;8.696;2023-02-22T05:08:49;7.18;;;3.85;;
19587;SDS011;9940;47.252;8.696;2023-02-22T05:11:15;7.53;;;3.90;;
19587;SDS011;9940;47.252;8.696;2023-02-22T05:13:41;6.68;;;3.20;;
19587;SDS011;9940;47.252;8.696;2023-02-22T05:16:07;11.13;;;4.30;;
19587;SDS011;9940;47.252;8.696;2023-02-22T05:18:36;6.90;;;3.75;;
19587;SDS011;9940;47.252;8.696;2023-02-22T05:21:02;7.53;;;3.90;;
19587;SDS011;9940;47.252;8.696;2023-02-22T05:23:30;8.50;;;3.60;;
19587;SDS011;9940;47.252;8.696;2023-02-22T05:25:57;5.38;;;3.42;;
19587;SDS011;9940;47.252;8.696;2023-02-22T05:28:25;7.13;;;3.90;;
19587;SDS011;9940;47.252;8.696;2023-02-22T05:30:52;8.00;;;3.85;;
19587;SDS011;9940;47.252;8.696;2023-02-22T05:33:18;8.80;;;4.00;;
19587;SDS011;9940;47.252;8.696;2023-02-22T05:35:44;9.60;;;3.85;;
19587;SDS011;9940;47.252;8.696;2023-02-22T05:38:13;10.02;;;4.35;;
19587;SDS011;9940;47.252;8.696;2023-02-22T05:40:42;9.30;;;4.30;;
19587;SDS011;9940;47.252;8.696;2023-02-22T05:43:08;10.95;;;4.65;;
19587;SDS011;9940;47.252;8.696;2023-02-22T05:45:36;10.15;;;5.03;;
19587;SDS011;9940;47.252;8.696;2023-02-22T05:48:02;8.60;;;4.10;;
19587;SDS011;9940;47.252;8.696;2023-02-22T05:50:29;10.85;;;4.60;;
19587;SDS011;9940;47.252;8.696;2023-02-22T05:52:57;8.93;;;4.50;;
19587;SDS011;9940;47.252;8.696;2023-02-22T05:55:23;7.03;;;3.83;;
19587;SDS011;9940;47.252;8.696;2023-02-22T05:57:49;7.03;;;3.80;;
19587;SDS011;9940;47.252;8.696;2023-02-22T06:00:17;6.95;;;3.80;;
19587;SDS011;9940;47.252;8.696;2023-02-22T06:02:43;10.27;;;3.55;;
19587;SDS011;9940;47.252;8.696;2023-02-22T06:05:12;7.85;;;3.85;;
19587;SDS011;9940;47.252;8.696;2023-02-22T06:07:38;7.80;;;4.00;;
19587;SDS011;9940;47.252;8.696;2023-02-22T06:10:04;9.70;;;4.22;;
19587;SDS011;9940;47.252;8.696;2023-02-22T06:12:30;7.05;;;4.07;;
19587;SDS011;9940;47.252;8.696;2023-02-22T06:14:56;7.72;;;4.00;;
19587;SDS011;9940;47.252;8.696;2023-02-22T06:17:22;9.77;;;4.40;;
19587;SDS011;9940;47.252;8.696;2023-02-22T06:19:48;10.07;;;3.95;;
19587;SDS011;9940;47.252;8.696;2023-02-22T06:22:18;10.30;;;3.70;;
19587;SDS011;9940;47.252;8.696;2023-02-22T06:24:44;7.18;;;3.55;;
19587;SDS011;9940;47.252;8.696;2023-02-22T06:27:11;6.30;;;3.70;;
19587;SDS011;9940;47.252;8.696;2023-02-22T06:29:37;7.53;;;3.80;;
19587;SDS011;9940;47.252;8.696;2023-02-22T06:32:03;11.48;;;4.13;;
19587;SDS011;9940;47.252;8.696;2023-02-22T06:34:29;12.40;;;4.53;;
19587;SDS011;9940;47.252;8.696;2023-02-22T06:36:55;8.13;;;4.07;;
19587;SDS011;9940;47.252;8.696;2023-02-22T06:39:23;10.88;;;4.60;;
19587;SDS011;9940;47.252;8.696;2023-02-22T06:41:49;11.68;;;4.68;;
19587;SDS011;9940;47.252;8.696;2023-02-22T06:44:18;6.38;;;4.05;;
19587;SDS011;9940;47.252;8.696;2023-02-22T06:46:48;9.63;;;4.57;;
19587;SDS011;9940;47.252;8.696;2023-02-22T06:49:15;7.95;;;4.28;;
19587;SDS011;9940;47.252;8.696;2023-02-22T06:51:41;7.88;;;3.97;;
19587;SDS011;9940;47.252;8.696;2023-02-22T06:54:08;7.35;;;4.50;;
19587;SDS011;9940;47.252;8.696;2023-02-22T06:56:34;8.80;;;4.32;;
19587;SDS011;9940;47.252;8.696;2023-02-22T06:59:00;12.80;;;4.75;;
19587;SDS011;9940;47.252;8.696;2023-02-22T07:01:29;9.35;;;4.15;;
19587;SDS011;9940;47.252;8.696;2023-02-22T07:03:55;8.82;;;4.35;;
19587;SDS011;9940;47.252;8.696;2023-02-22T07:06:21;10.48;;;4.70;;
19587;SDS011;9940;47.252;8.696;2023-02-22T07:08:50;8.65;;;4.43;;
19587;SDS011;9940;47.252;8.696;2023-02-22T07:11:16;8.55;;;4.40;;
19587;SDS011;9940;47.252;8.696;2023-02-22T07:13:42;8.98;;;4.53;;
19587;SDS011;9940;47.252;8.696;2023-02-22T07:16:10;9.38;;;5.30;;
19587;SDS011;9940;47.252;8.696;2023-02-22T07:18:36;9.25;;;4.18;;
19587;SDS011;9940;47.252;8.696;2023-02-22T07:21:03;9.68;;;4.65;;
19587;SDS011;9940;47.252;8.696;2023-02-22T07:23:30;7.88;;;4.53;;
19587;SDS011;9940;47.252;8.696;2023-02-22T07:25:58;7.72;;;4.65;;
19587;SDS011;9940;47.252;8.696;2023-02-22T07:28:24;12.98;;;4.68;;
19587;SDS011;9940;47.252;8.696;2023-02-22T07:30:50;9.48;;;4.38;;
19587;SDS011;9940;47.252;8.696;2023-02-22T07:33:21;10.48;;;4.72;;
19587;SDS011;9940;47.252;8.696;2023-02-22T07:35:48;12.75;;;4.72;;
19587;SDS011;9940;47.252;8.696;2023-02-22T07:38:15;9.65;;;4.07;;
19587;SDS011;9940;47.252;8.696;2023-02-22T07:40:41;8.50;;;4.68;;
19587;SDS011;9940;47.252;8.696;2023-02-22T07:43:18;7.85;;;4.28;;
19587;SDS011;9940;47.252;8.696;2023-02-22T07:45:44;11.10;;;4.97;;
19587;SDS011;9940;47.252;8.696;2023-02-22T07:48:11;12.02;;;4.88;;
19587;SDS011;9940;47.252;8.696;2023-02-22T07:50:37;8.82;;;4.82;;
19587;SDS011;9940;47.252;8.696;2023-02-22T07:53:09;9.60;;;4.55;;
19587;SDS011;9940;47.252;8.696;2023-02-22T07:55:35;7.40;;;4.38;;
19587;SDS011;9940;47.252;8.696;2023-02-22T07:58:05;10.75;;;3.97;;
19587;SDS011;9940;47.252;8.696;2023-02-22T08:00:33;8.85;;;4.50;;
19587;SDS011;9940;47.252;8.696;2023-02-22T08:03:00;11.73;;;4.15;;
19587;SDS011;9940;47.252;8.696;2023-02-22T08:05:26;10.27;;;4.07;;
19587;SDS011;9940;47.252;8.696;2023-02-22T08:07:53;8.88;;;4.70;;
19587;SDS011;9940;47.252;8.696;2023-02-22T08:10:20;7.53;;;4.75;;
19587;SDS011;9940;47.252;8.696;2023-02-22T08:12:47;11.50;;;4.50;;
19587;SDS011;9940;47.252;8.696;2023-02-22T08:15:23;12.73;;;3.95;;
19587;SDS011;9940;47.252;8.696;2023-02-22T08:17:49;8.20;;;4.30;;
19587;SDS011;9940;47.252;8.696;2023-02-22T08:20:17;9.88;;;4.60;;
19587;SDS011;9940;47.252;8.696;2023-02-22T08:22:43;11.57;;;4.28;;
19587;SDS011;9940;47.252;8.696;2023-02-22T08:25:10;12.82;;;4.72;;
19587;SDS011;9940;47.252;8.696;2023-02-22T08:27:36;9.30;;;4.65;;
19587;SDS011;9940;47.252;8.696;2023-02-22T08:30:02;7.47;;;4.70;;
19587;SDS011;9940;47.252;8.696;2023-02-22T08:32:28;9.75;;;4.85;;
19587;SDS011;9940;47.252;8.696;2023-02-22T08:34:57;9.13;;;5.03;;
19587;SDS011;9940;47.252;8.696;2023-02-22T08:37:23;8.85;;;4.90;;
19587;SDS011;9940;47.252;8.696;2023-02-22T08:39:49;8.63;;;4.82;;
19587;SDS011;9940;47.252;8.696;2023-02-22T08:42:15;8.50;;;4.90;;
19587;SDS011;9940;47.252;8.696;2023-02-22T08:44:41;8.88;;;4.25;;
19587;SDS011;9940;47.252;8.696;2023-02-22T08:47:07;12.13;;;4.30;;
19587;SDS011;9940;47.252;8.696;2023-02-22T08:49:33;10.65;;;4.88;;
19587;SDS011;9940;47.252;8.696;2023-02-22T08:52:01;10.20;;;4.88;;
19587;SDS011;9940;47.252;8.696;2023-02-22T08:54:27;11.70;;;4.95;;
19587;SDS011;9940;47.252;8.696;2023-02-22T08:56:53;11.20;;;5.13;;
19587;SDS011;9940;47.252;8.696;2023-02-22T08:59:21;8.85;;;4.72;;
19587;SDS011;9940;47.252;8.696;2023-02-22T09:01:50;6.93;;;4.20;;
19587;SDS011;9940;47.252;8.696;2023-02-22T09:04:16;8.98;;;4.60;;
19587;SDS011;9940;47.252;8.696;2023-02-22T09:06:42;12.30;;;5.50;;
19587;SDS011;9940;47.252;8.696;2023-02-22T09:09:15;10.38;;;4.57;;
19587;SDS011;9940;47.252;8.696;2023-02-22T09:11:45;8.20;;;4.80;;
19587;SDS011;9940;47.252;8.696;2023-02-22T09:14:14;11.40;;;5.75;;
19587;SDS011;9940;47.252;8.696;2023-02-22T09:16:41;15.60;;;7.07;;
19587;SDS011;9940;47.252;8.696;2023-02-22T09:19:07;10.65;;;5.50;;
19587;SDS011;9940;47.252;8.696;2023-02-22T09:21:33;9.77;;;5.18;;
19587;SDS011;9940;47.252;8.696;2023-02-22T09:24:01;8.73;;;5.55;;
19587;SDS011;9940;47.252;8.696;2023-02-22T09:26:32;11.40;;;5.03;;
19587;SDS011;9940;47.252;8.696;2023-02-22T09:28:58;9.68;;;5.47;;
19587;SDS011;9940;47.252;8.696;2023-02-22T09:31:24;12.48;;;6.43;;
19587;SDS011;9940;47.252;8.696;2023-02-22T09:33:50;10.52;;;5.93;;
19587;SDS011;9940;47.252;8.696;2023-02-22T09:36:19;9.43;;;5.72;;
19587;SDS011;9940;47.252;8.696;2023-02-22T09:38:45;10.27;;;5.43;;
19587;SDS011;9940;47.252;8.696;2023-02-22T09:41:19;10.57;;;5.70;;
19587;SDS011;9940;47.252;8.696;2023-02-22T09:48:59;12.15;;;4.93;;
19587;SDS011;9940;47.252;8.696;2023-02-22T09:51:28;6.40;;;4.18;;
19587;SDS011;9940;47.252;8.696;2023-02-22T09:53:57;8.73;;;4.47;;
19587;SDS011;9940;47.252;8.696;2023-02-22T09:56:24;8.75;;;5.10;;
19587;SDS011;9940;47.252;8.696;2023-02-22T09:58:53;9.80;;;4.50;;
19587;SDS011;9940;47.252;8.696;2023-02-22T10:01:25;7.40;;;4.30;;
19587;SDS011;9940;47.252;8.696;2023-02-22T10:04:04;9.15;;;4.25;;
19587;SDS011;9940;47.252;8.696;2023-02-22T10:06:33;10.75;;;3.92;;
19587;SDS011;9940;47.252;8.696;2023-02-22T10:09:00;7.45;;;4.00;;
19587;SDS011;9940;47.252;8.696;2023-02-22T10:27:23;6.00;;;3.35;;
19587;SDS011;9940;47.252;8.696;2023-02-22T10:29:53;6.80;;;3.88;;
19587;SDS011;9940;47.252;8.696;2023-02-22T10:32:26;6.35;;;3.50;;
19587;SDS011;9940;47.252;8.696;2023-02-22T10:34:56;4.90;;;3.22;;
19587;SDS011;9940;47.252;8.696;2023-02-22T10:39:56;7.97;;;4.13;;
19587;SDS011;9940;47.252;8.696;2023-02-22T10:42:24;6.32;;;4.20;;
19587;SDS011;9940;47.252;8.696;2023-02-22T10:44:51;7.28;;;4.30;;
19587;SDS011;9940;47.252;8.696;2023-02-22T10:47:17;5.43;;;4.18;;
19587;SDS011;9940;47.252;8.696;2023-02-22T10:49:48;7.13;;;5.85;;
19587;SDS011;9940;47.252;8.696;2023-02-22T10:52:25;6.60;;;6.00;;
19587;SDS011;9940;47.252;8.696;2023-02-22T10:54:53;10.95;;;9.38;;
19587;SDS011;9940;47.252;8.696;2023-02-22T10:57:21;9.55;;;8.77;;
19587;SDS011;9940;47.252;8.696;2023-02-22T10:59:56;13.45;;;12.35;;
19587;SDS011;9940;47.252;8.696;2023-02-22T11:02:29;15.05;;;14.15;;
19587;SDS011;9940;47.252;8.696;2023-02-22T11:04:57;35.45;;;33.65;;
19587;SDS011;9940;47.252;8.696;2023-02-22T11:07:34;20.73;;;19.23;;
19587;SDS011;9940;47.252;8.696;2023-02-22T11:10:05;16.73;;;15.63;;
19587;SDS011;9940;47.252;8.696;2023-02-22T11:17:41;51.10;;;48.50;;
19587;SDS011;9940;47.252;8.696;2023-02-22T11:22:49;40.22;;;37.65;;
19587;SDS011;9940;47.252;8.696;2023-02-22T11:25:19;34.55;;;32.67;;
19587;SDS011;9940;47.252;8.696;2023-02-22T11:27:46;50.38;;;47.63;;
19587;SDS011;9940;47.252;8.696;2023-02-22T11:32:47;48.08;;;45.47;;
19587;SDS011;9940;47.252;8.696;2023-02-22T11:35:29;57.92;;;54.42;;
19587;SDS011;9940;47.252;8.696;2023-02-22T11:40:39;45.60;;;43.25;;
19587;SDS011;9940;47.252;8.696;2023-02-22T11:43:06;65.80;;;62.35;;
19587;SDS011;9940;47.252;8.696;2023-02-22T11:45:36;61.22;;;58.13;;
19587;SDS011;9940;47.252;8.696;2023-02-22T11:48:05;76.95;;;73.03;;
19587;SDS011;9940;47.252;8.696;2023-02-22T12:18:34;65.60;;;62.15;;
19587;SDS011;9940;47.252;8.696;2023-02-22T12:21:14;67.38;;;63.88;;
19587;SDS011;9940;47.252;8.696;2023-02-22T12:23:49;70.60;;;66.82;;
19587;SDS011;9940;47.252;8.696;2023-02-22T12:26:17;105.63;;;100.63;;
19587;SDS011;9940;47.252;8.696;2023-02-22T12:34:05;146.02;;;139.60;;
19587;SDS011;9940;47.252;8.696;2023-02-22T12:36:32;121.07;;;115.47;;
19587;SDS011;9940;47.252;8.696;2023-02-22T12:39:02;126.43;;;120.57;;
19587;SDS011;9940;47.252;8.696;2023-02-22T12:41:32;95.18;;;90.38;;
19587;SDS011;9940;47.252;8.696;2023-02-22T12:44:09;77.05;;;73.05;;
19587;SDS011;9940;47.252;8.696;2023-02-22T12:46:54;40.00;;;37.58;;
19587;SDS011;9940;47.252;8.696;2023-02-22T12:54:21;53.58;;;50.40;;
19587;SDS011;9940;47.252;8.696;2023-02-22T12:56:52;50.70;;;47.40;;
19587;SDS011;9940;47.252;8.696;2023-02-22T13:01:59;42.47;;;39.67;;
19587;SDS011;9940;47.252;8.696;2023-02-22T13:04:26;25.23;;;23.00;;
19587;SDS011;9940;47.252;8.696;2023-02-22T13:09:32;26.05;;;24.02;;
19587;SDS011;9940;47.252;8.696;2023-02-22T13:12:10;36.25;;;33.75;;
19587;SDS011;9940;47.252;8.696;2023-02-22T13:25:05;16.92;;;15.43;;
19587;SDS011;9940;47.252;8.696;2023-02-22T13:27:37;20.55;;;18.50;;
19587;SDS011;9940;47.252;8.696;2023-02-22T13:30:08;22.50;;;20.70;;
19587;SDS011;9940;47.252;8.696;2023-02-22T13:48:26;20.85;;;18.45;;
19587;SDS011;9940;47.252;8.696;2023-02-22T13:51:14;20.05;;;16.65;;
19587;SDS011;9940;47.252;8.696;2023-02-22T13:56:14;19.90;;;15.60;;
19587;SDS011;9940;47.252;8.696;2023-02-22T13:58:46;17.55;;;12.50;;
19587;SDS011;9940;47.252;8.696;2023-02-22T14:01:35;17.05;;;14.48;;
19587;SDS011;9940;47.252;8.696;2023-02-22T14:06:44;19.33;;;16.63;;
19587;SDS011;9940;47.252;8.696;2023-02-22T14:09:18;19.63;;;16.10;;
19587;SDS011;9940;47.252;8.696;2023-02-22T14:12:09;16.52;;;11.50;;
19587;SDS011;9940;47.252;8.696;2023-02-22T14:17:45;18.83;;;13.55;;
19587;SDS011;9940;47.252;8.696;2023-02-22T14:22:43;19.67;;;11.80;;
19587;SDS011;9940;47.252;8.696;2023-02-22T14:27:57;16.95;;;10.98;;
19587;SDS011;9940;47.252;8.696;2023-02-22T14:30:24;19.60;;;11.35;;
19587;SDS011;9940;47.252;8.696;2023-02-22T14:32:51;15.48;;;10.02;;
19587;SDS011;9940;47.252;8.696;2023-02-22T14:35:17;19.25;;;11.75;;
19587;SDS011;9940;47.252;8.696;2023-02-22T14:37:47;18.63;;;9.95;;
19587;SDS011;9940;47.252;8.696;2023-02-22T14:43:03;17.57;;;10.53;;
19587;SDS011;9940;47.252;8.696;2023-02-22T14:45:31;18.45;;;10.13;;
19587;SDS011;9940;47.252;8.696;2023-02-22T14:55:38;18.35;;;10.50;;
19587;SDS011;9940;47.252;8.696;2023-02-22T14:58:20;14.55;;;9.63;;
19587;SDS011;9940;47.252;8.696;2023-02-22T15:00:52;17.92;;;10.07;;
19587;SDS011;9940;47.252;8.696;2023-02-22T15:05:46;19.08;;;10.90;;
19587;SDS011;9940;47.252;8.696;2023-02-22T15:08:17;16.17;;;9.65;;
19587;SDS011;9940;47.252;8.696;2023-02-22T15:10:51;14.95;;;8.73;;
19587;SDS011;9940;47.252;8.696;2023-02-22T15:13:25;14.20;;;9.00;;
19587;SDS011;9940;47.252;8.696;2023-02-22T15:18:40;15.52;;;9.88;;
19587;SDS011;9940;47.252;8.696;2023-02-22T15:21:11;22.40;;;9.02;;
19587;SDS011;9940;47.252;8.696;2023-02-22T15:23:44;15.93;;;9.38;;
19587;SDS011;9940;47.252;8.696;2023-02-22T15:26:17;15.60;;;9.05;;
19587;SDS011;9940;47.252;8.696;2023-02-22T15:28:43;18.35;;;9.02;;
19587;SDS011;9940;47.252;8.696;2023-02-22T15:31:13;14.90;;;8.57;;
19587;SDS011;9940;47.252;8.696;2023-02-22T15:33:40;20.88;;;10.30;;
19587;SDS011;9940;47.252;8.696;2023-02-22T15:36:12;16.33;;;8.45;;
19587;SDS011;9940;47.252;8.696;2023-02-22T15:38:39;16.60;;;8.05;;
19587;SDS011;9940;47.252;8.696;2023-02-22T15:41:07;16.38;;;8.98;;
19587;SDS011;9940;47.252;8.696;2023-02-22T15:43:33;16.38;;;8.60;;
19587;SDS011;9940;47.252;8.696;2023-02-22T15:46:05;15.40;;;8.40;;
19587;SDS011;9940;47.252;8.696;2023-02-22T15:48:32;17.50;;;8.02;;
19587;SDS011;9940;47.252;8.696;2023-02-22T15:51:05;13.75;;;8.57;;
19587;SDS011;9940;47.252;8.696;2023-02-22T15:53:45;15.80;;;7.68;;
19587;SDS011;9940;47.252;8.696;2023-02-22T15:56:45;17.17;;;8.27;;
19587;SDS011;9940;47.252;8.696;2023-02-22T16:01:35;20.50;;;8.32;;
19587;SDS011;9940;47.252;8.696;2023-02-22T16:04:01;15.27;;;8.13;;
19587;SDS011;9940;47.252;8.696;2023-02-22T16:08:53;14.48;;;8.00;;
19587;SDS011;9940;47.252;8.696;2023-02-22T16:11:29;13.32;;;7.20;;
19587;SDS011;9940;47.252;8.696;2023-02-22T16:13:59;14.40;;;8.07;;
19587;SDS011;9940;47.252;8.696;2023-02-22T16:16:27;16.80;;;8.68;;
19587;SDS011;9940;47.252;8.696;2023-02-22T16:19:14;18.42;;;8.32;;
19587;SDS011;9940;47.252;8.696;2023-02-22T16:21:53;16.73;;;8.68;;
19587;SDS011;9940;47.252;8.696;2023-02-22T16:24:29;15.67;;;8.27;;
19587;SDS011;9940;47.252;8.696;2023-02-22T16:27:03;14.00;;;7.97;;
19587;SDS011;9940;47.252;8.696;2023-02-22T16:29:29;16.27;;;8.57;;
19587;SDS011;9940;47.252;8.696;2023-02-22T16:31:56;23.00;;;8.93;;
19587;SDS011;9940;47.252;8.696;2023-02-22T16:34:25;21.30;;;8.73;;
19587;SDS011;9940;47.252;8.696;2023-02-22T16:36:51;18.40;;;8.90;;
19587;SDS011;9940;47.252;8.696;2023-02-22T16:39:29;18.15;;;8.40;;
19587;SDS011;9940;47.252;8.696;2023-02-22T16:41:57;17.00;;;7.70;;
19587;SDS011;9940;47.252;8.696;2023-02-22T16:44:26;15.38;;;8.90;;
19587;SDS011;9940;47.252;8.696;2023-02-22T16:46:53;19.15;;;8.23;;
19587;SDS011;9940;47.252;8.696;2023-02-22T16:49:19;17.40;;;8.45;;
19587;SDS011;9940;47.252;8.696;2023-02-22T16:51:51;18.63;;;9.23;;
19587;SDS011;9940;47.252;8.696;2023-02-22T16:54:23;19.60;;;10.00;;
19587;SDS011;9940;47.252;8.696;2023-02-22T16:56:50;23.10;;;11.30;;
19587;SDS011;9940;47.252;8.696;2023-02-22T16:59:16;20.75;;;10.00;;
19587;SDS011;9940;47.252;8.696;2023-02-22T17:01:45;29.45;;;13.27;;
19587;SDS011;9940;47.252;8.696;2023-02-22T17:04:15;19.60;;;9.90;;
19587;SDS011;9940;47.252;8.696;2023-02-22T17:06:42;19.30;;;9.60;;
19587;SDS011;9940;47.252;8.696;2023-02-22T17:09:08;17.60;;;9.30;;
19587;SDS011;9940;47.252;8.696;2023-02-22T17:11:34;17.95;;;8.82;;
19587;SDS011;9940;47.252;8.696;2023-02-22T17:14:01;17.90;;;9.00;;
19587;SDS011;9940;47.252;8.696;2023-02-22T17:16:29;19.02;;;9.40;;
19587;SDS011;9940;47.252;8.696;2023-02-22T17:18:55;19.52;;;9.70;;
19587;SDS011;9940;47.252;8.696;2023-02-22T17:21:21;15.75;;;8.82;;
19587;SDS011;9940;47.252;8.696;2023-02-22T17:23:50;17.35;;;8.65;;
19587;SDS011;9940;47.252;8.696;2023-02-22T17:26:16;17.65;;;9.38;;
19587;SDS011;9940;47.252;8.696;2023-02-22T17:28:42;19.15;;;9.25;;
19587;SDS011;9940;47.252;8.696;2023-02-22T17:31:10;21.27;;;9.65;;
19587;SDS011;9940;47.252;8.696;2023-02-22T17:33:44;20.98;;;8.45;;
19587;SDS011;9940;47.252;8.696;2023-02-22T17:36:10;26.08;;;14.15;;
19587;SDS011;9940;47.252;8.696;2023-02-22T17:38:37;59.88;;;29.35;;
19587;SDS011;9940;47.252;8.696;2023-02-22T17:41:05;24.48;;;10.68;;
19587;SDS011;9940;47.252;8.696;2023-02-22T17:43:34;18.83;;;10.10;;
19587;SDS011;9940;47.252;8.696;2023-02-22T17:46:06;16.80;;;9.63;;
19587;SDS011;9940;47.252;8.696;2023-02-22T17:48:34;19.65;;;10.07;;
19587;SDS011;9940;47.252;8.696;2023-02-22T17:51:07;19.58;;;9.20;;
19587;SDS011;9940;47.252;8.696;2023-02-22T17:53:36;123.03;;;51.15;;
19587;SDS011;9940;47.252;8.696;2023-02-22T17:56:06;47.45;;;23.15;;
19587;SDS011;9940;47.252;8.696;2023-02-22T17:58:32;24.42;;;11.90;;
19587;SDS011;9940;47.252;8.696;2023-02-22T18:00:58;20.17;;;9.60;;
19587;SDS011;9940;47.252;8.696;2023-02-22T18:03:27;20.60;;;9.98;;